sensor_id;sensor_type;location;lat;lon;timestamp;P1;durP1;ratioP1;P2;durP2;ratioP2
19167;SDS011;9716;53.114;18.040;2023-03-01T00:01:46;32.50;;;14.20;;
19167;SDS011;9716;53.114;18.040;2023-03-01T00:04:15;52.23;;;16.50;;
19167;SDS011;9716;53.114;18.040;2023-03-01T00:06:45;34.97;;;13.83;;
19167;SDS011;9716;53.114;18.040;2023-03-01T00:09:14;41.63;;;15.00;;
19167;SDS011;9716;53.114;18.040;2023-03-01T00:11:43;36.10;;;13.33;;
19167;SDS011;9716;53.114;18.040;2023-03-01T00:14:12;34.77;;;14.33;;
19167;SDS011;9716;53.114;18.040;2023-03-01T00:16:43;41.67;;;15.90;;
19167;SDS011;9716;53.114;18.040;2023-03-01T00:19:14;32.70;;;14.87;;
19167;SDS011;9716;53.114;18.040;2023-03-01T00:21:46;36.10;;;14.23;;
19167;SDS011;9716;53.114;18.040;2023-03-01T00:24:14;37.10;;;13.73;;
19167;SDS011;9716;53.114;18.040;2023-03-01T00:26:43;37.83;;;14.30;;
19167;SDS011;9716;53.114;18.040;2023-03-01T00:29:13;29.53;;;12.70;;
19167;SDS011;9716;53.114;18.040;2023-03-01T00:31:42;42.93;;;13.40;;
19167;SDS011;9716;53.114;18.040;2023-03-01T00:34:10;34.80;;;13.07;;
19167;SDS011;9716;53.114;18.040;2023-03-01T00:36:38;32.13;;;12.00;;
19167;SDS011;9716;53.114;18.040;2023-03-01T00:39:09;29.93;;;12.20;;
19167;SDS011;9716;53.114;18.040;2023-03-01T00:41:40;35.83;;;13.00;;
19167;SDS011;9716;53.114;18.040;2023-03-01T00:44:09;41.40;;;14.77;;
19167;SDS011;9716;53.114;18.040;2023-03-01T00:46:38;35.03;;;12.70;;
19167;SDS011;9716;53.114;18.040;2023-03-01T00:49:06;33.57;;;13.07;;
19167;SDS011;9716;53.114;18.040;2023-03-01T00:51:35;33.20;;;13.07;;
19167;SDS011;9716;53.114;18.040;2023-03-01T00:54:03;40.07;;;13.90;;
19167;SDS011;9716;53.114;18.040;2023-03-01T00:56:33;32.07;;;12.33;;
19167;SDS011;9716;53.114;18.040;2023-03-01T00:59:01;28.87;;;13.00;;
19167;SDS011;9716;53.114;18.040;2023-03-01T01:01:30;26.17;;;12.40;;
19167;SDS011;9716;53.114;18.040;2023-03-01T01:04:00;36.73;;;12.57;;
19167;SDS011;9716;53.114;18.040;2023-03-01T01:06:31;37.63;;;14.33;;
19167;SDS011;9716;53.114;18.040;2023-03-01T01:09:00;30.97;;;12.40;;
19167;SDS011;9716;53.114;18.040;2023-03-01T01:11:29;31.03;;;13.10;;
19167;SDS011;9716;53.114;18.040;2023-03-01T01:13:59;31.20;;;12.47;;
19167;SDS011;9716;53.114;18.040;2023-03-01T01:16:28;33.13;;;13.40;;
19167;SDS011;9716;53.114;18.040;2023-03-01T01:18:57;32.07;;;13.03;;
19167;SDS011;9716;53.114;18.040;2023-03-01T01:21:26;36.27;;;12.00;;
19167;SDS011;9716;53.114;18.040;2023-03-01T01:23:55;25.77;;;11.43;;
19167;SDS011;9716;53.114;18.040;2023-03-01T01:26:24;32.10;;;13.60;;
19167;SDS011;9716;53.114;18.040;2023-03-01T01:28:56;31.80;;;12.17;;
19167;SDS011;9716;53.114;18.040;2023-03-01T01:31:27;31.90;;;12.83;;
19167;SDS011;9716;53.114;18.040;2023-03-01T01:33:56;33.90;;;12.73;;
19167;SDS011;9716;53.114;18.040;2023-03-01T01:36:27;34.27;;;12.50;;
19167;SDS011;9716;53.114;18.040;2023-03-01T01:38:57;29.57;;;11.50;;
19167;SDS011;9716;53.114;18.040;2023-03-01T01:41:26;36.90;;;12.70;;
19167;SDS011;9716;53.114;18.040;2023-03-01T01:44:09;36.17;;;11.97;;
19167;SDS011;9716;53.114;18.040;2023-03-01T01:46:45;25.70;;;12.20;;
19167;SDS011;9716;53.114;18.040;2023-03-01T01:49:25;35.20;;;11.87;;
19167;SDS011;9716;53.114;18.040;2023-03-01T01:52:00;36.57;;;12.13;;
19167;SDS011;9716;53.114;18.040;2023-03-01T01:54:38;27.40;;;10.87;;
19167;SDS011;9716;53.114;18.040;2023-03-01T01:57:12;23.87;;;11.63;;
19167;SDS011;9716;53.114;18.040;2023-03-01T01:59:45;28.93;;;11.40;;
19167;SDS011;9716;53.114;18.040;2023-03-01T02:02:17;25.07;;;11.50;;
19167;SDS011;9716;53.114;18.040;2023-03-01T02:04:47;39.77;;;12.50;;
19167;SDS011;9716;53.114;18.040;2023-03-01T02:07:17;28.70;;;12.23;;
19167;SDS011;9716;53.114;18.040;2023-03-01T02:09:49;33.37;;;12.00;;
19167;SDS011;9716;53.114;18.040;2023-03-01T02:12:20;29.70;;;11.10;;
19167;SDS011;9716;53.114;18.040;2023-03-01T02:14:51;28.03;;;11.10;;
19167;SDS011;9716;53.114;18.040;2023-03-01T02:17:21;29.77;;;10.60;;
19167;SDS011;9716;53.114;18.040;2023-03-01T02:19:53;20.17;;;9.93;;
19167;SDS011;9716;53.114;18.040;2023-03-01T02:22:34;25.07;;;10.80;;
19167;SDS011;9716;53.114;18.040;2023-03-01T02:25:07;24.77;;;10.27;;
19167;SDS011;9716;53.114;18.040;2023-03-01T02:27:48;23.83;;;10.87;;
19167;SDS011;9716;53.114;18.040;2023-03-01T02:30:23;24.77;;;11.13;;
19167;SDS011;9716;53.114;18.040;2023-03-01T02:32:53;29.80;;;10.83;;
19167;SDS011;9716;53.114;18.040;2023-03-01T02:35:29;25.23;;;9.60;;
19167;SDS011;9716;53.114;18.040;2023-03-01T02:38:01;30.83;;;10.30;;
19167;SDS011;9716;53.114;18.040;2023-03-01T02:40:33;19.13;;;9.60;;
19167;SDS011;9716;53.114;18.040;2023-03-01T02:43:03;20.70;;;9.23;;
19167;SDS011;9716;53.114;18.040;2023-03-01T02:45:35;24.93;;;11.03;;
19167;SDS011;9716;53.114;18.040;2023-03-01T02:48:04;27.80;;;10.73;;
19167;SDS011;9716;53.114;18.040;2023-03-01T02:50:43;19.93;;;8.93;;
19167;SDS011;9716;53.114;18.040;2023-03-01T02:53:21;26.03;;;9.97;;
19167;SDS011;9716;53.114;18.040;2023-03-01T02:55:55;23.73;;;9.97;;
19167;SDS011;9716;53.114;18.040;2023-03-01T02:58:25;28.10;;;9.73;;
19167;SDS011;9716;53.114;18.040;2023-03-01T03:00:55;25.23;;;9.67;;
19167;SDS011;9716;53.114;18.040;2023-03-01T03:03:27;20.97;;;9.77;;
19167;SDS011;9716;53.114;18.040;2023-03-01T03:05:56;18.60;;;9.23;;
19167;SDS011;9716;53.114;18.040;2023-03-01T03:08:25;21.10;;;10.77;;
19167;SDS011;9716;53.114;18.040;2023-03-01T03:10:53;23.37;;;10.87;;
19167;SDS011;9716;53.114;18.040;2023-03-01T03:13:22;28.10;;;10.53;;
19167;SDS011;9716;53.114;18.040;2023-03-01T03:15:56;19.87;;;8.93;;
19167;SDS011;9716;53.114;18.040;2023-03-01T03:18:24;31.20;;;11.13;;
19167;SDS011;9716;53.114;18.040;2023-03-01T03:20:53;26.40;;;10.33;;
19167;SDS011;9716;53.114;18.040;2023-03-01T03:23:22;26.90;;;9.47;;
19167;SDS011;9716;53.114;18.040;2023-03-01T03:25:51;33.00;;;11.20;;
19167;SDS011;9716;53.114;18.040;2023-03-01T03:28:19;21.83;;;9.23;;
19167;SDS011;9716;53.114;18.040;2023-03-01T03:30:48;29.20;;;11.30;;
19167;SDS011;9716;53.114;18.040;2023-03-01T03:33:18;25.27;;;10.03;;
19167;SDS011;9716;53.114;18.040;2023-03-01T03:35:47;20.63;;;9.20;;
19167;SDS011;9716;53.114;18.040;2023-03-01T03:38:17;26.20;;;8.63;;
19167;SDS011;9716;53.114;18.040;2023-03-01T03:40:49;22.67;;;9.30;;
19167;SDS011;9716;53.114;18.040;2023-03-01T03:43:19;24.70;;;8.87;;
19167;SDS011;9716;53.114;18.040;2023-03-01T03:45:49;15.80;;;8.07;;
19167;SDS011;9716;53.114;18.040;2023-03-01T03:48:20;28.30;;;9.13;;
19167;SDS011;9716;53.114;18.040;2023-03-01T03:50:49;21.80;;;8.43;;
19167;SDS011;9716;53.114;18.040;2023-03-01T03:53:19;23.60;;;8.43;;
19167;SDS011;9716;53.114;18.040;2023-03-01T03:55:48;19.87;;;9.43;;
19167;SDS011;9716;53.114;18.040;2023-03-01T03:58:18;20.53;;;7.53;;
19167;SDS011;9716;53.114;18.040;2023-03-01T04:00:49;26.23;;;8.87;;
19167;SDS011;9716;53.114;18.040;2023-03-01T04:03:20;18.43;;;8.83;;
19167;SDS011;9716;53.114;18.040;2023-03-01T04:05:49;16.97;;;8.63;;
19167;SDS011;9716;53.114;18.040;2023-03-01T04:08:18;23.77;;;8.40;;
19167;SDS011;9716;53.114;18.040;2023-03-01T04:10:48;23.30;;;9.30;;
19167;SDS011;9716;53.114;18.040;2023-03-01T04:13:18;25.77;;;9.17;;
19167;SDS011;9716;53.114;18.040;2023-03-01T04:15:48;21.30;;;8.60;;
19167;SDS011;9716;53.114;18.040;2023-03-01T04:18:17;23.60;;;9.93;;
19167;SDS011;9716;53.114;18.040;2023-03-01T04:20:48;21.83;;;9.20;;
19167;SDS011;9716;53.114;18.040;2023-03-01T04:23:19;19.90;;;8.57;;
19167;SDS011;9716;53.114;18.040;2023-03-01T04:25:48;19.20;;;8.73;;
19167;SDS011;9716;53.114;18.040;2023-03-01T04:28:21;19.13;;;8.67;;
19167;SDS011;9716;53.114;18.040;2023-03-01T04:31:07;20.03;;;7.87;;
19167;SDS011;9716;53.114;18.040;2023-03-01T04:33:42;19.80;;;8.67;;
19167;SDS011;9716;53.114;18.040;2023-03-01T04:36:12;21.87;;;8.53;;
19167;SDS011;9716;53.114;18.040;2023-03-01T04:38:42;26.03;;;9.67;;
19167;SDS011;9716;53.114;18.040;2023-03-01T04:41:14;18.07;;;8.50;;
19167;SDS011;9716;53.114;18.040;2023-03-01T04:43:44;15.90;;;8.37;;
19167;SDS011;9716;53.114;18.040;2023-03-01T04:46:14;16.70;;;7.90;;
19167;SDS011;9716;53.114;18.040;2023-03-01T04:48:45;22.40;;;8.17;;
19167;SDS011;9716;53.114;18.040;2023-03-01T04:51:14;23.30;;;9.53;;
19167;SDS011;9716;53.114;18.040;2023-03-01T04:53:43;21.70;;;8.13;;
19167;SDS011;9716;53.114;18.040;2023-03-01T04:56:12;29.27;;;8.93;;
19167;SDS011;9716;53.114;18.040;2023-03-01T04:58:41;15.03;;;7.73;;
19167;SDS011;9716;53.114;18.040;2023-03-01T05:01:10;17.70;;;8.37;;
19167;SDS011;9716;53.114;18.040;2023-03-01T05:03:43;23.50;;;7.97;;
19167;SDS011;9716;53.114;18.040;2023-03-01T05:06:14;15.20;;;7.73;;
19167;SDS011;9716;53.114;18.040;2023-03-01T05:08:43;23.93;;;9.30;;
19167;SDS011;9716;53.114;18.040;2023-03-01T05:11:11;17.73;;;8.10;;
19167;SDS011;9716;53.114;18.040;2023-03-01T05:13:40;23.47;;;8.67;;
19167;SDS011;9716;53.114;18.040;2023-03-01T05:16:09;28.87;;;9.53;;
19167;SDS011;9716;53.114;18.040;2023-03-01T05:18:39;23.90;;;9.13;;
19167;SDS011;9716;53.114;18.040;2023-03-01T05:21:10;25.43;;;8.87;;
19167;SDS011;9716;53.114;18.040;2023-03-01T05:23:43;23.73;;;9.47;;
19167;SDS011;9716;53.114;18.040;2023-03-01T05:26:13;26.23;;;10.07;;
19167;SDS011;9716;53.114;18.040;2023-03-01T05:28:54;26.73;;;8.77;;
19167;SDS011;9716;53.114;18.040;2023-03-01T05:31:26;28.87;;;9.67;;
19167;SDS011;9716;53.114;18.040;2023-03-01T05:33:55;23.13;;;9.13;;
19167;SDS011;9716;53.114;18.040;2023-03-01T05:36:24;23.30;;;9.80;;
19167;SDS011;9716;53.114;18.040;2023-03-01T05:38:53;23.07;;;9.47;;
19167;SDS011;9716;53.114;18.040;2023-03-01T05:41:22;26.43;;;10.07;;
19167;SDS011;9716;53.114;18.040;2023-03-01T05:43:50;19.37;;;10.67;;
19167;SDS011;9716;53.114;18.040;2023-03-01T05:46:19;18.47;;;9.20;;
19167;SDS011;9716;53.114;18.040;2023-03-01T05:48:47;23.67;;;9.43;;
19167;SDS011;9716;53.114;18.040;2023-03-01T05:51:16;27.97;;;9.57;;
19167;SDS011;9716;53.114;18.040;2023-03-01T05:53:47;28.13;;;10.20;;
19167;SDS011;9716;53.114;18.040;2023-03-01T05:56:15;21.97;;;9.93;;
19167;SDS011;9716;53.114;18.040;2023-03-01T05:58:44;25.70;;;9.77;;
19167;SDS011;9716;53.114;18.040;2023-03-01T06:01:12;23.27;;;9.93;;
19167;SDS011;9716;53.114;18.040;2023-03-01T06:03:41;25.43;;;10.77;;
19167;SDS011;9716;53.114;18.040;2023-03-01T06:06:09;23.60;;;9.47;;
19167;SDS011;9716;53.114;18.040;2023-03-01T06:08:38;21.50;;;9.73;;
19167;SDS011;9716;53.114;18.040;2023-03-01T06:11:08;24.80;;;11.07;;
19167;SDS011;9716;53.114;18.040;2023-03-01T06:13:36;22.03;;;9.63;;
19167;SDS011;9716;53.114;18.040;2023-03-01T06:16:05;19.90;;;9.87;;
19167;SDS011;9716;53.114;18.040;2023-03-01T06:18:35;22.97;;;10.60;;
19167;SDS011;9716;53.114;18.040;2023-03-01T06:21:03;26.17;;;10.23;;
19167;SDS011;9716;53.114;18.040;2023-03-01T06:23:32;20.30;;;9.93;;
19167;SDS011;9716;53.114;18.040;2023-03-01T06:26:04;24.87;;;10.30;;
19167;SDS011;9716;53.114;18.040;2023-03-01T06:28:35;30.23;;;10.33;;
19167;SDS011;9716;53.114;18.040;2023-03-01T06:31:04;34.00;;;10.03;;
19167;SDS011;9716;53.114;18.040;2023-03-01T06:33:35;22.40;;;8.63;;
19167;SDS011;9716;53.114;18.040;2023-03-01T06:36:03;25.37;;;9.90;;
19167;SDS011;9716;53.114;18.040;2023-03-01T06:38:32;22.23;;;9.30;;
19167;SDS011;9716;53.114;18.040;2023-03-01T06:41:01;25.43;;;10.10;;
19167;SDS011;9716;53.114;18.040;2023-03-01T06:43:30;18.60;;;9.60;;
19167;SDS011;9716;53.114;18.040;2023-03-01T06:46:00;29.33;;;9.47;;
19167;SDS011;9716;53.114;18.040;2023-03-01T06:48:31;25.43;;;10.60;;
19167;SDS011;9716;53.114;18.040;2023-03-01T06:51:00;27.37;;;10.23;;
19167;SDS011;9716;53.114;18.040;2023-03-01T06:53:28;24.30;;;9.80;;
19167;SDS011;9716;53.114;18.040;2023-03-01T06:55:57;19.83;;;8.00;;
19167;SDS011;9716;53.114;18.040;2023-03-01T06:58:27;25.00;;;11.17;;
19167;SDS011;9716;53.114;18.040;2023-03-01T07:00:55;23.00;;;8.80;;
19167;SDS011;9716;53.114;18.040;2023-03-01T07:03:25;19.97;;;9.47;;
19167;SDS011;9716;53.114;18.040;2023-03-01T07:05:53;26.13;;;11.30;;
19167;SDS011;9716;53.114;18.040;2023-03-01T07:08:22;21.77;;;8.43;;
19167;SDS011;9716;53.114;18.040;2023-03-01T07:10:54;22.37;;;9.43;;
19167;SDS011;9716;53.114;18.040;2023-03-01T07:13:23;20.23;;;8.20;;
19167;SDS011;9716;53.114;18.040;2023-03-01T07:15:51;19.17;;;8.77;;
19167;SDS011;9716;53.114;18.040;2023-03-01T07:18:20;27.33;;;9.17;;
19167;SDS011;9716;53.114;18.040;2023-03-01T07:20:50;26.20;;;10.20;;
19167;SDS011;9716;53.114;18.040;2023-03-01T07:23:18;23.40;;;9.77;;
19167;SDS011;9716;53.114;18.040;2023-03-01T07:25:51;19.73;;;8.50;;
19167;SDS011;9716;53.114;18.040;2023-03-01T07:28:22;19.37;;;9.10;;
19167;SDS011;9716;53.114;18.040;2023-03-01T07:30:51;24.13;;;9.47;;
19167;SDS011;9716;53.114;18.040;2023-03-01T07:33:19;19.17;;;9.27;;
19167;SDS011;9716;53.114;18.040;2023-03-01T07:35:55;19.70;;;8.63;;
19167;SDS011;9716;53.114;18.040;2023-03-01T07:38:24;21.37;;;9.23;;
19167;SDS011;9716;53.114;18.040;2023-03-01T07:40:53;20.67;;;8.07;;
19167;SDS011;9716;53.114;18.040;2023-03-01T07:43:25;16.17;;;8.53;;
19167;SDS011;9716;53.114;18.040;2023-03-01T07:45:53;27.50;;;8.63;;
19167;SDS011;9716;53.114;18.040;2023-03-01T07:48:22;20.43;;;7.63;;
19167;SDS011;9716;53.114;18.040;2023-03-01T07:50:52;20.07;;;8.10;;
19167;SDS011;9716;53.114;18.040;2023-03-01T07:53:21;22.87;;;8.43;;
19167;SDS011;9716;53.114;18.040;2023-03-01T07:55:49;20.67;;;8.53;;
19167;SDS011;9716;53.114;18.040;2023-03-01T07:58:17;16.47;;;7.90;;
19167;SDS011;9716;53.114;18.040;2023-03-01T08:00:46;19.63;;;8.27;;
19167;SDS011;9716;53.114;18.040;2023-03-01T08:03:14;17.47;;;6.93;;
19167;SDS011;9716;53.114;18.040;2023-03-01T08:05:42;24.07;;;7.63;;
19167;SDS011;9716;53.114;18.040;2023-03-01T08:08:12;17.40;;;8.03;;
19167;SDS011;9716;53.114;18.040;2023-03-01T08:10:40;16.50;;;8.07;;
19167;SDS011;9716;53.114;18.040;2023-03-01T08:13:09;14.60;;;7.43;;
19167;SDS011;9716;53.114;18.040;2023-03-01T08:15:37;21.63;;;8.73;;
19167;SDS011;9716;53.114;18.040;2023-03-01T08:18:06;18.40;;;7.30;;
19167;SDS011;9716;53.114;18.040;2023-03-01T08:20:34;19.00;;;8.77;;
19167;SDS011;9716;53.114;18.040;2023-03-01T08:23:02;19.73;;;7.87;;
19167;SDS011;9716;53.114;18.040;2023-03-01T08:25:32;17.07;;;8.43;;
19167;SDS011;9716;53.114;18.040;2023-03-01T08:28:01;16.50;;;7.18;;
19167;SDS011;9716;53.114;18.040;2023-03-01T08:30:29;17.67;;;7.90;;
19167;SDS011;9716;53.114;18.040;2023-03-01T08:32:58;17.60;;;7.80;;
19167;SDS011;9716;53.114;18.040;2023-03-01T08:35:26;22.37;;;7.97;;
19167;SDS011;9716;53.114;18.040;2023-03-01T08:37:55;21.27;;;10.40;;
19167;SDS011;9716;53.114;18.040;2023-03-01T08:40:23;22.97;;;9.00;;
19167;SDS011;9716;53.114;18.040;2023-03-01T08:42:56;29.37;;;10.90;;
19167;SDS011;9716;53.114;18.040;2023-03-01T08:45:25;25.60;;;11.03;;
19167;SDS011;9716;53.114;18.040;2023-03-01T08:47:54;20.17;;;9.63;;
19167;SDS011;9716;53.114;18.040;2023-03-01T08:50:23;25.13;;;10.07;;
19167;SDS011;9716;53.114;18.040;2023-03-01T08:52:51;19.80;;;8.90;;
19167;SDS011;9716;53.114;18.040;2023-03-01T08:55:20;23.95;;;9.40;;
19167;SDS011;9716;53.114;18.040;2023-03-01T08:57:48;22.98;;;10.15;;
19167;SDS011;9716;53.114;18.040;2023-03-01T09:00:19;22.77;;;9.43;;
19167;SDS011;9716;53.114;18.040;2023-03-01T09:02:48;23.92;;;9.48;;
19167;SDS011;9716;53.114;18.040;2023-03-01T09:05:16;20.42;;;9.15;;
19167;SDS011;9716;53.114;18.040;2023-03-01T09:07:46;22.52;;;9.13;;
19167;SDS011;9716;53.114;18.040;2023-03-01T09:10:14;22.88;;;9.75;;
19167;SDS011;9716;53.114;18.040;2023-03-01T09:12:43;23.67;;;9.55;;
19167;SDS011;9716;53.114;18.040;2023-03-01T09:15:11;22.77;;;9.43;;
19167;SDS011;9716;53.114;18.040;2023-03-01T09:17:41;18.60;;;8.65;;
19167;SDS011;9716;53.114;18.040;2023-03-01T09:20:10;16.58;;;8.52;;
19167;SDS011;9716;53.114;18.040;2023-03-01T09:22:39;22.52;;;9.70;;
19167;SDS011;9716;53.114;18.040;2023-03-01T09:25:07;21.50;;;9.93;;
19167;SDS011;9716;53.114;18.040;2023-03-01T09:27:36;18.88;;;9.35;;
19167;SDS011;9716;53.114;18.040;2023-03-01T09:30:05;19.48;;;9.45;;
19167;SDS011;9716;53.114;18.040;2023-03-01T09:32:35;20.55;;;9.10;;
19167;SDS011;9716;53.114;18.040;2023-03-01T09:35:05;19.27;;;8.32;;
19167;SDS011;9716;53.114;18.040;2023-03-01T09:37:35;18.58;;;9.07;;
19167;SDS011;9716;53.114;18.040;2023-03-01T09:40:04;23.48;;;9.00;;
19167;SDS011;9716;53.114;18.040;2023-03-01T09:42:35;25.77;;;9.88;;
19167;SDS011;9716;53.114;18.040;2023-03-01T09:45:15;29.17;;;8.88;;
19167;SDS011;9716;53.114;18.040;2023-03-01T09:47:52;20.90;;;9.73;;
19167;SDS011;9716;53.114;18.040;2023-03-01T09:50:24;18.63;;;8.95;;
19167;SDS011;9716;53.114;18.040;2023-03-01T09:52:59;23.92;;;7.75;;
19167;SDS011;9716;53.114;18.040;2023-03-01T09:55:31;15.15;;;7.70;;
19167;SDS011;9716;53.114;18.040;2023-03-01T09:58:08;19.05;;;8.07;;
19167;SDS011;9716;53.114;18.040;2023-03-01T10:00:59;20.75;;;8.27;;
19167;SDS011;9716;53.114;18.040;2023-03-01T10:03:34;14.90;;;8.07;;
19167;SDS011;9716;53.114;18.040;2023-03-01T10:06:12;11.57;;;6.57;;
19167;SDS011;9716;53.114;18.040;2023-03-01T10:09:00;15.75;;;7.95;;
19167;SDS011;9716;53.114;18.040;2023-03-01T10:11:35;20.50;;;7.18;;
19167;SDS011;9716;53.114;18.040;2023-03-01T10:14:07;15.60;;;6.90;;
19167;SDS011;9716;53.114;18.040;2023-03-01T10:16:48;22.25;;;7.53;;
19167;SDS011;9716;53.114;18.040;2023-03-01T10:19:21;16.70;;;7.65;;
19167;SDS011;9716;53.114;18.040;2023-03-01T10:21:56;19.83;;;7.18;;
19167;SDS011;9716;53.114;18.040;2023-03-01T10:24:31;18.70;;;8.32;;
19167;SDS011;9716;53.114;18.040;2023-03-01T10:27:03;23.60;;;7.15;;
19167;SDS011;9716;53.114;18.040;2023-03-01T10:29:34;17.73;;;7.53;;
19167;SDS011;9716;53.114;18.040;2023-03-01T10:32:08;23.60;;;6.78;;
19167;SDS011;9716;53.114;18.040;2023-03-01T10:34:38;13.52;;;6.85;;
19167;SDS011;9716;53.114;18.040;2023-03-01T10:37:11;14.20;;;6.75;;
19167;SDS011;9716;53.114;18.040;2023-03-01T10:39:54;18.77;;;7.20;;
19167;SDS011;9716;53.114;18.040;2023-03-01T10:42:33;17.67;;;7.07;;
19167;SDS011;9716;53.114;18.040;2023-03-01T10:45:16;17.95;;;6.70;;
19167;SDS011;9716;53.114;18.040;2023-03-01T10:48:02;13.32;;;6.15;;
19167;SDS011;9716;53.114;18.040;2023-03-01T10:50:33;15.98;;;6.85;;
19167;SDS011;9716;53.114;18.040;2023-03-01T10:53:16;18.10;;;7.50;;
19167;SDS011;9716;53.114;18.040;2023-03-01T10:55:56;17.42;;;6.88;;
19167;SDS011;9716;53.114;18.040;2023-03-01T10:58:27;13.75;;;6.93;;
19167;SDS011;9716;53.114;18.040;2023-03-01T11:00:57;15.40;;;6.22;;
19167;SDS011;9716;53.114;18.040;2023-03-01T11:03:29;11.93;;;6.05;;
19167;SDS011;9716;53.114;18.040;2023-03-01T11:06:03;12.98;;;6.65;;
19167;SDS011;9716;53.114;18.040;2023-03-01T11:08:38;9.52;;;5.63;;
19167;SDS011;9716;53.114;18.040;2023-03-01T11:11:17;12.38;;;6.07;;
19167;SDS011;9716;53.114;18.040;2023-03-01T11:13:58;16.90;;;6.30;;
19167;SDS011;9716;53.114;18.040;2023-03-01T11:16:31;16.75;;;6.57;;
19167;SDS011;9716;53.114;18.040;2023-03-01T11:21:57;13.27;;;5.80;;
19167;SDS011;9716;53.114;18.040;2023-03-01T11:24:31;16.92;;;6.82;;
19167;SDS011;9716;53.114;18.040;2023-03-01T11:27:11;15.20;;;6.00;;
19167;SDS011;9716;53.114;18.040;2023-03-01T11:29:48;19.25;;;6.68;;
19167;SDS011;9716;53.114;18.040;2023-03-01T11:32:22;10.80;;;5.30;;
19167;SDS011;9716;53.114;18.040;2023-03-01T11:34:54;11.38;;;6.18;;
19167;SDS011;9716;53.114;18.040;2023-03-01T11:37:35;12.98;;;6.47;;
19167;SDS011;9716;53.114;18.040;2023-03-01T11:40:14;11.55;;;5.88;;
19167;SDS011;9716;53.114;18.040;2023-03-01T11:42:55;14.18;;;6.18;;
19167;SDS011;9716;53.114;18.040;2023-03-01T11:45:31;10.15;;;5.70;;
19167;SDS011;9716;53.114;18.040;2023-03-01T11:48:15;11.80;;;4.95;;
19167;SDS011;9716;53.114;18.040;2023-03-01T11:51:16;19.45;;;6.45;;
19167;SDS011;9716;53.114;18.040;2023-03-01T11:54:04;13.55;;;5.65;;
19167;SDS011;9716;53.114;18.040;2023-03-01T11:56:43;18.55;;;6.13;;
19167;SDS011;9716;53.114;18.040;2023-03-01T11:59:22;9.32;;;5.05;;
19167;SDS011;9716;53.114;18.040;2023-03-01T12:02:18;10.48;;;4.95;;
19167;SDS011;9716;53.114;18.040;2023-03-01T12:05:14;9.55;;;4.60;;
19167;SDS011;9716;53.114;18.040;2023-03-01T12:07:56;11.93;;;4.85;;
19167;SDS011;9716;53.114;18.040;2023-03-01T12:10:35;17.70;;;5.45;;
19167;SDS011;9716;53.114;18.040;2023-03-01T12:16:15;14.02;;;5.00;;
19167;SDS011;9716;53.114;18.040;2023-03-01T12:19:10;16.15;;;5.53;;
19167;SDS011;9716;53.114;18.040;2023-03-01T12:21:59;13.55;;;5.35;;
19167;SDS011;9716;53.114;18.040;2023-03-01T12:24:47;9.57;;;4.93;;
19167;SDS011;9716;53.114;18.040;2023-03-01T12:27:30;12.63;;;4.68;;
19167;SDS011;9716;53.114;18.040;2023-03-01T12:30:25;8.27;;;4.03;;
19167;SDS011;9716;53.114;18.040;2023-03-01T12:33:02;20.70;;;4.85;;
19167;SDS011;9716;53.114;18.040;2023-03-01T12:35:54;15.57;;;6.43;;
19167;SDS011;9716;53.114;18.040;2023-03-01T12:38:46;11.32;;;4.68;;
19167;SDS011;9716;53.114;18.040;2023-03-01T12:41:29;11.27;;;5.03;;
19167;SDS011;9716;53.114;18.040;2023-03-01T12:44:10;12.93;;;5.28;;
19167;SDS011;9716;53.114;18.040;2023-03-01T12:47:14;7.28;;;4.18;;
19167;SDS011;9716;53.114;18.040;2023-03-01T12:49:55;12.98;;;5.03;;
19167;SDS011;9716;53.114;18.040;2023-03-01T12:52:28;13.32;;;5.38;;
19167;SDS011;9716;53.114;18.040;2023-03-01T12:55:06;10.48;;;5.07;;
19167;SDS011;9716;53.114;18.040;2023-03-01T12:57:49;7.78;;;4.22;;
19167;SDS011;9716;53.114;18.040;2023-03-01T13:00:26;16.58;;;6.10;;
19167;SDS011;9716;53.114;18.040;2023-03-01T13:03:03;13.63;;;5.88;;
19167;SDS011;9716;53.114;18.040;2023-03-01T13:05:50;13.20;;;5.25;;
19167;SDS011;9716;53.114;18.040;2023-03-01T13:08:31;12.13;;;5.38;;
19167;SDS011;9716;53.114;18.040;2023-03-01T13:11:05;11.07;;;5.38;;
19167;SDS011;9716;53.114;18.040;2023-03-01T13:13:39;12.73;;;6.50;;
19167;SDS011;9716;53.114;18.040;2023-03-01T13:16:21;13.77;;;6.30;;
19167;SDS011;9716;53.114;18.040;2023-03-01T13:19:12;13.73;;;6.10;;
19167;SDS011;9716;53.114;18.040;2023-03-01T13:21:42;13.45;;;5.78;;
19167;SDS011;9716;53.114;18.040;2023-03-01T13:27:10;13.25;;;5.85;;
19167;SDS011;9716;53.114;18.040;2023-03-01T13:29:52;12.75;;;6.05;;
19167;SDS011;9716;53.114;18.040;2023-03-01T13:32:22;12.15;;;5.45;;
19167;SDS011;9716;53.114;18.040;2023-03-01T13:41:07;19.27;;;6.53;;
19167;SDS011;9716;53.114;18.040;2023-03-01T13:43:37;22.92;;;5.88;;
19167;SDS011;9716;53.114;18.040;2023-03-01T13:46:10;16.27;;;6.18;;
19167;SDS011;9716;53.114;18.040;2023-03-01T13:48:44;11.80;;;5.57;;
19167;SDS011;9716;53.114;18.040;2023-03-01T13:51:19;15.02;;;5.38;;
19167;SDS011;9716;53.114;18.040;2023-03-01T13:53:52;15.73;;;5.32;;
19167;SDS011;9716;53.114;18.040;2023-03-01T13:56:24;11.07;;;5.72;;
19167;SDS011;9716;53.114;18.040;2023-03-01T13:58:57;19.10;;;6.65;;
19167;SDS011;9716;53.114;18.040;2023-03-01T14:01:29;11.63;;;5.15;;
19167;SDS011;9716;53.114;18.040;2023-03-01T14:03:59;13.00;;;5.47;;
19167;SDS011;9716;53.114;18.040;2023-03-01T14:06:28;12.07;;;6.13;;
19167;SDS011;9716;53.114;18.040;2023-03-01T14:09:04;15.20;;;5.93;;
19167;SDS011;9716;53.114;18.040;2023-03-01T14:11:43;13.85;;;6.00;;
19167;SDS011;9716;53.114;18.040;2023-03-01T14:14:39;14.35;;;5.93;;
19167;SDS011;9716;53.114;18.040;2023-03-01T14:17:20;11.35;;;5.05;;
19167;SDS011;9716;53.114;18.040;2023-03-01T14:20:14;14.88;;;6.20;;
19167;SDS011;9716;53.114;18.040;2023-03-01T14:22:46;15.30;;;6.53;;
19167;SDS011;9716;53.114;18.040;2023-03-01T14:25:24;23.25;;;6.60;;
19167;SDS011;9716;53.114;18.040;2023-03-01T14:27:55;10.85;;;5.95;;
19167;SDS011;9716;53.114;18.040;2023-03-01T14:30:30;10.65;;;5.25;;
19167;SDS011;9716;53.114;18.040;2023-03-01T14:33:02;16.27;;;5.40;;
19167;SDS011;9716;53.114;18.040;2023-03-01T14:35:34;12.07;;;5.15;;
19167;SDS011;9716;53.114;18.040;2023-03-01T14:38:03;24.52;;;7.53;;
19167;SDS011;9716;53.114;18.040;2023-03-01T14:40:34;14.80;;;6.47;;
19167;SDS011;9716;53.114;18.040;2023-03-01T14:43:08;16.73;;;6.65;;
19167;SDS011;9716;53.114;18.040;2023-03-01T14:45:39;16.70;;;7.40;;
19167;SDS011;9716;53.114;18.040;2023-03-01T14:48:14;15.13;;;6.70;;
19167;SDS011;9716;53.114;18.040;2023-03-01T14:50:43;15.23;;;6.65;;
19167;SDS011;9716;53.114;18.040;2023-03-01T14:53:15;12.35;;;5.72;;
19167;SDS011;9716;53.114;18.040;2023-03-01T14:55:48;11.77;;;6.25;;
19167;SDS011;9716;53.114;18.040;2023-03-01T14:58:21;11.85;;;5.55;;
19167;SDS011;9716;53.114;18.040;2023-03-01T15:00:53;15.13;;;5.57;;
19167;SDS011;9716;53.114;18.040;2023-03-01T15:03:25;15.77;;;7.15;;
19167;SDS011;9716;53.114;18.040;2023-03-01T15:05:58;12.80;;;6.03;;
19167;SDS011;9716;53.114;18.040;2023-03-01T15:08:28;17.08;;;6.57;;
19167;SDS011;9716;53.114;18.040;2023-03-01T15:11:01;14.73;;;6.23;;
19167;SDS011;9716;53.114;18.040;2023-03-01T15:13:35;13.77;;;6.25;;
19167;SDS011;9716;53.114;18.040;2023-03-01T15:16:07;15.85;;;6.13;;
19167;SDS011;9716;53.114;18.040;2023-03-01T15:18:42;18.20;;;6.90;;